createdAt,value
2022-12-18T00:01:32.519Z,101995.33
2022-12-18T00:04:03.949Z,101998.09
2022-12-18T00:06:36.355Z,101994.42
2022-12-18T00:09:04.693Z,101998.20
2022-12-18T00:11:32.799Z,101997.39
2022-12-18T00:14:02.707Z,101998.55
2022-12-18T00:16:32.160Z,101998.88
2022-12-18T00:19:07.569Z,101998.96
2022-12-18T00:21:37.550Z,101999.91
2022-12-18T00:24:07.711Z,102006.93
2022-12-18T00:26:38.652Z,102009.63
2022-12-18T00:29:16.049Z,102015.31
2022-12-18T00:31:46.244Z,102018.65
2022-12-18T00:34:16.698Z,102016.55
2022-12-18T00:36:47.466Z,102021.37
2022-12-18T00:39:16.473Z,102017.98
2022-12-18T00:42:03.828Z,102020.39
2022-12-18T00:44:41.980Z,102019.73
2022-12-18T00:47:10.347Z,102022.63
2022-12-18T00:49:40.514Z,102024.23
2022-12-18T00:52:08.228Z,102029.08
2022-12-18T00:54:36.827Z,102030.90
2022-12-18T00:57:04.784Z,102032.27
2022-12-18T00:59:33.156Z,102032.70
2022-12-18T01:02:01.431Z,102033.16
2022-12-18T01:04:34.247Z,102032.48
2022-12-18T01:07:02.062Z,102033.95
2022-12-18T01:09:30.620Z,102030.44
2022-12-18T01:11:57.899Z,102033.89
2022-12-18T01:14:27.208Z,102035.47
2022-12-18T01:16:54.967Z,102041.95
2022-12-18T01:19:23.561Z,102040.73
2022-12-18T01:21:51.609Z,102040.46
2022-12-18T01:24:22.300Z,102040.88
2022-12-18T01:26:53.268Z,102043.69
2022-12-18T01:29:25.494Z,102043.05
2022-12-18T01:32:00.342Z,102042.73
2022-12-18T01:34:30.675Z,102039.92
2022-12-18T01:36:58.174Z,102041.98
2022-12-18T01:39:25.308Z,102044.86
2022-12-18T01:42:08.429Z,102046.61
2022-12-18T01:44:47.838Z,102046.88
2022-12-18T01:47:40.350Z,102045.76
2022-12-18T01:50:32.773Z,102047.77
2022-12-18T01:53:20.201Z,102052.15
2022-12-18T01:55:54.100Z,102052.35
2022-12-18T01:58:40.102Z,102050.17
2022-12-18T02:01:10.886Z,102053.83
2022-12-18T02:06:41.710Z,102060.71
2022-12-18T02:09:27.855Z,102061.52
2022-12-18T02:12:21.993Z,102061.64
2022-12-18T02:15:04.179Z,102057.33
2022-12-18T02:17:51.927Z,102056.17
2022-12-18T02:20:26.787Z,102060.41
2022-12-18T02:23:15.017Z,102058.73
2022-12-18T02:26:21.442Z,102058.54
2022-12-18T02:28:54.828Z,102055.89
2022-12-18T02:31:30.014Z,102055.79
2022-12-18T02:34:15.664Z,102058.88
2022-12-18T02:36:46.756Z,102065.77
2022-12-18T02:39:17.214Z,102064.30
2022-12-18T02:41:56.919Z,102064.70
2022-12-18T02:44:25.490Z,102060.21
2022-12-18T02:46:55.777Z,102061.17
2022-12-18T02:49:28.980Z,102064.16
2022-12-18T02:52:26.183Z,102064.44
2022-12-18T02:55:09.452Z,102068.94
2022-12-18T02:57:40.721Z,102066.40
2022-12-18T03:00:13.586Z,102065.50
2022-12-18T03:02:58.654Z,102070.11
2022-12-18T03:05:49.691Z,102075.74
2022-12-18T03:08:25.271Z,102078.64
2022-12-18T03:11:13.891Z,102077.52
2022-12-18T03:13:50.451Z,102074.55
2022-12-18T03:16:28.996Z,102072.63
2022-12-18T03:18:58.472Z,102072.95
2022-12-18T03:21:51.368Z,102074.14
2022-12-18T03:24:23.068Z,102070.30
2022-12-18T03:26:55.383Z,102072.59
2022-12-18T03:30:08.676Z,102072.17
2022-12-18T03:32:44.067Z,102078.13
2022-12-18T03:35:15.851Z,102081.52
2022-12-18T03:37:42.963Z,102080.54
2022-12-18T03:40:10.766Z,102081.80
2022-12-18T03:42:58.342Z,102086.77
2022-12-18T03:45:32.891Z,102084.95
2022-12-18T03:48:14.690Z,102090.71
2022-12-18T03:51:03.092Z,102092.09
2022-12-18T03:53:38.014Z,102094.16
2022-12-18T03:56:07.257Z,102098.45
2022-12-18T03:58:42.165Z,102099.20
2022-12-18T04:01:19.615Z,102099.61
2022-12-18T04:03:50.577Z,102100.99
2022-12-18T04:06:19.859Z,102104.83
2022-12-18T04:08:48.731Z,102111.98
2022-12-18T04:11:18.375Z,102107.73
2022-12-18T04:13:46.286Z,102107.65
2022-12-18T04:16:31.309Z,102108.48
2022-12-18T04:19:01.999Z,102108.27
2022-12-18T04:21:30.671Z,102112.84
2022-12-18T04:23:58.032Z,102116.55
2022-12-18T04:26:26.174Z,102119.15
2022-12-18T04:29:05.849Z,102127.01
2022-12-18T04:31:32.967Z,102130.89
2022-12-18T04:34:00.330Z,102136.60
2022-12-18T04:36:29.266Z,102138.23
2022-12-18T04:39:03.139Z,102143.23
2022-12-18T04:41:32.266Z,102141.72
2022-12-18T04:44:00.763Z,102140.91
2022-12-18T04:46:28.101Z,102139.64
2022-12-18T04:48:55.163Z,102143.85
2022-12-18T04:51:26.847Z,102147.86
2022-12-18T04:53:54.772Z,102147.25
2022-12-18T04:56:22.482Z,102149.01
2022-12-18T04:58:49.774Z,102146.35
2022-12-18T05:01:21.076Z,102144.08
2022-12-18T05:03:48.304Z,102147.65
2022-12-18T05:06:19.613Z,102153.01
2022-12-18T05:08:48.040Z,102154.04
2022-12-18T05:11:21.304Z,102155.05
2022-12-18T05:13:48.353Z,102155.84
2022-12-18T05:16:16.671Z,102157.23
2022-12-18T05:18:43.806Z,102163.80
2022-12-18T05:21:10.778Z,102168.58
2022-12-18T05:23:39.238Z,102174.70
2022-12-18T05:26:08.875Z,102169.75
2022-12-18T05:28:40.703Z,102168.80
2022-12-18T05:31:08.163Z,102171.39
2022-12-18T05:33:36.875Z,102169.20
2022-12-18T05:36:09.567Z,102178.19
2022-12-18T05:38:38.335Z,102179.09
2022-12-18T05:41:06.687Z,102185.13
2022-12-18T05:43:37.461Z,102186.56
2022-12-18T05:46:12.697Z,102185.77
2022-12-18T05:48:43.810Z,102185.41
2022-12-18T05:51:16.358Z,102185.70
2022-12-18T05:53:44.027Z,102191.61
2022-12-18T05:56:20.889Z,102193.61
2022-12-18T05:58:50.859Z,102196.91
2022-12-18T06:01:21.414Z,102200.10
2022-12-18T06:03:48.518Z,102202.27
2022-12-18T06:06:25.755Z,102206.89
2022-12-18T06:08:53.788Z,102211.55
2022-12-18T06:11:23.422Z,102211.27
2022-12-18T06:23:57.585Z,102226.82
2022-12-18T06:26:29.477Z,102229.02
2022-12-18T06:28:56.723Z,102229.63
2022-12-18T06:31:23.951Z,102234.53
2022-12-18T06:33:51.004Z,102236.17
2022-12-18T06:36:18.012Z,102243.27
2022-12-18T06:38:45.812Z,102250.33
2022-12-18T06:41:16.496Z,102258.05
2022-12-18T06:43:49.881Z,102262.98
2022-12-18T06:46:17.267Z,102269.52
2022-12-18T06:48:45.832Z,102273.60
2022-12-18T06:51:23.757Z,102275.97
2022-12-18T06:53:51.773Z,102278.42
2022-12-18T06:56:18.849Z,102281.67
2022-12-18T06:58:45.955Z,102279.23
2022-12-18T07:01:16.948Z,102284.11
2022-12-18T07:03:45.065Z,102293.45
2022-12-18T07:06:19.384Z,102293.45
2022-12-18T07:08:47.862Z,102297.02
2022-12-18T07:11:15.666Z,102302.98
2022-12-18T07:13:43.593Z,102306.80
2022-12-18T07:16:20.866Z,102308.59
2022-12-18T07:18:55.319Z,102314.21
2022-12-18T07:21:23.645Z,102311.55
2022-12-18T07:23:53.412Z,102313.35
2022-12-18T07:26:23.095Z,102318.56
2022-12-18T07:28:56.802Z,102317.40
2022-12-18T07:31:25.226Z,102318.36
2022-12-18T07:33:52.675Z,102312.42
2022-12-18T07:36:23.005Z,102309.80
2022-12-18T07:38:51.121Z,102314.70
2022-12-18T07:41:21.834Z,102317.98
2022-12-18T07:43:49.931Z,102324.15
2022-12-18T07:46:17.962Z,102326.41
2022-12-18T07:48:49.448Z,102327.80
2022-12-18T07:51:21.399Z,102329.09
2022-12-18T07:53:52.738Z,102329.66
2022-12-18T07:56:28.673Z,102333.92
2022-12-18T07:58:57.092Z,102337.54
2022-12-18T08:01:28.761Z,102338.85
2022-12-18T08:03:56.343Z,102341.18
2022-12-18T08:06:24.664Z,102344.14
2022-12-18T08:08:58.514Z,102346.41
2022-12-18T08:11:30.766Z,102349.11
2022-12-18T08:13:59.002Z,102352.50
2022-12-18T08:16:26.127Z,102360.66
2022-12-18T08:18:54.417Z,102366.55
2022-12-18T08:21:30.329Z,102368.81
2022-12-18T08:24:00.945Z,102370.42
2022-12-18T08:26:30.751Z,102376.41
2022-12-18T08:29:01.639Z,102377.66
2022-12-18T08:31:31.183Z,102386.25
2022-12-18T08:33:59.221Z,102386.23
2022-12-18T08:36:27.673Z,102386.16
2022-12-18T08:38:55.716Z,102389.20
2022-12-18T08:41:23.677Z,102392.96
2022-12-18T08:44:09.134Z,102396.39
2022-12-18T08:46:39.858Z,102398.55
2022-12-18T08:49:09.941Z,102401.38
2022-12-18T08:51:39.158Z,102399.77
2022-12-18T08:54:07.460Z,102398.68
2022-12-18T08:56:35.347Z,102398.55
2022-12-18T08:59:03.067Z,102403.31
2022-12-18T09:01:30.947Z,102405.85
2022-12-18T09:03:59.770Z,102409.71
2022-12-18T09:06:30.233Z,102408.21
2022-12-18T09:08:58.536Z,102408.46
2022-12-18T09:11:28.094Z,102405.50
2022-12-18T09:13:56.588Z,102402.63
2022-12-18T09:16:30.390Z,102405.48
2022-12-18T09:19:01.031Z,102409.73
2022-12-18T09:21:35.132Z,102410.83
2022-12-18T09:24:05.040Z,102411.73
2022-12-18T09:26:34.436Z,102410.92
2022-12-18T09:29:01.410Z,102411.49
2022-12-18T09:31:28.617Z,102409.91
2022-12-18T09:33:57.685Z,102409.63
2022-12-18T09:36:25.015Z,102409.78
2022-12-18T09:38:54.797Z,102409.21
2022-12-18T09:41:45.533Z,102402.69
2022-12-18T09:44:27.768Z,102405.13
2022-12-18T09:47:10.653Z,102403.61
2022-12-18T09:50:03.220Z,102397.98
2022-12-18T09:52:37.486Z,102397.61
2022-12-18T09:55:23.318Z,102397.56
2022-12-18T09:57:56.159Z,102401.16
2022-12-18T10:00:26.190Z,102400.64
2022-12-18T10:02:58.107Z,102403.77
2022-12-18T10:05:49.019Z,102397.58
2022-12-18T10:09:01.419Z,102392.52
2022-12-18T10:11:40.083Z,102395.42
2022-12-18T10:14:46.515Z,102394.67
2022-12-18T10:17:16.636Z,102396.02
2022-12-18T10:19:54.328Z,102395.82
2022-12-18T10:22:27.809Z,102393.34
2022-12-18T10:25:17.085Z,102395.30
2022-12-18T10:27:44.808Z,102400.31
2022-12-18T10:30:21.066Z,102398.03
2022-12-18T10:32:48.253Z,102395.64
2022-12-18T10:35:23.497Z,102393.88
2022-12-18T10:38:14.568Z,102393.02
2022-12-18T10:40:59.829Z,102392.04
2022-12-18T10:43:32.581Z,102389.50
2022-12-18T10:46:11.576Z,102386.11
2022-12-18T10:48:44.155Z,102384.33
2022-12-18T10:51:27.211Z,102385.58
2022-12-18T10:54:25.456Z,102383.81
2022-12-18T10:56:52.534Z,102382.18
2022-12-18T11:02:39.763Z,102372.27
2022-12-18T11:05:28.818Z,102372.15
2022-12-18T11:07:57.405Z,102372.71
2022-12-18T11:10:37.193Z,102371.86
2022-12-18T11:13:23.717Z,102369.86
2022-12-18T11:15:53.463Z,102369.54
2022-12-18T11:18:23.777Z,102368.80
2022-12-18T11:21:14.732Z,102365.02
2022-12-18T11:23:54.462Z,102360.27
2022-12-18T11:26:23.033Z,102361.60
2022-12-18T11:29:12.128Z,102359.20
2022-12-18T11:31:39.448Z,102357.50
2022-12-18T11:34:30.408Z,102358.08
2022-12-18T11:37:01.382Z,102352.95
2022-12-18T11:39:43.833Z,102351.31
2022-12-18T11:42:35.836Z,102352.79
2022-12-18T11:45:27.737Z,102350.08
2022-12-18T11:48:03.569Z,102348.19
2022-12-18T11:50:49.954Z,102347.11
2022-12-18T11:53:17.684Z,102346.80
2022-12-18T11:56:20.146Z,102346.27
2022-12-18T11:58:53.608Z,102345.56
2022-12-18T12:01:46.265Z,102348.02
2022-12-18T12:04:44.540Z,102349.66
2022-12-18T12:07:23.056Z,102344.23
2022-12-18T12:10:29.447Z,102346.36
2022-12-18T12:13:02.439Z,102343.91
2022-12-18T12:16:10.187Z,102340.52
2022-12-18T12:18:58.608Z,102342.55
2022-12-18T12:21:31.889Z,102341.16
2022-12-18T12:24:41.836Z,102336.38
2022-12-18T12:27:23.282Z,102336.23
2022-12-18T12:30:19.580Z,102337.45
2022-12-18T12:33:18.765Z,102339.98
2022-12-18T12:36:15.812Z,102340.60
2022-12-18T12:38:53.386Z,102339.80
2022-12-18T12:41:55.621Z,102338.31
2022-12-18T12:44:37.184Z,102333.77
2022-12-18T12:47:31.728Z,102336.33
2022-12-18T12:50:16.353Z,102335.39
2022-12-18T12:52:58.497Z,102330.90
2022-12-18T12:55:34.289Z,102332.73
2022-12-18T12:58:17.195Z,102333.02
2022-12-18T13:01:16.221Z,102334.27
2022-12-18T13:04:30.743Z,102340.06
2022-12-18T13:07:11.853Z,102342.60
2022-12-18T13:10:17.853Z,102347.15
2022-12-18T13:13:11.099Z,102348.23
2022-12-18T13:15:46.294Z,102350.03
2022-12-18T13:18:23.936Z,102349.59
2022-12-18T13:21:01.537Z,102350.09
2022-12-18T13:23:38.208Z,102348.08
2022-12-18T13:26:12.666Z,102351.23
2022-12-18T13:28:49.089Z,102349.91
2022-12-18T13:31:34.449Z,102351.04
2022-12-18T13:34:27.820Z,102347.35
2022-12-18T13:36:58.497Z,102352.56
2022-12-18T13:39:57.933Z,102351.46
2022-12-18T13:42:49.871Z,102352.48
2022-12-18T13:45:43.822Z,102353.23
2022-12-18T13:48:25.696Z,102354.21
2022-12-18T13:51:05.076Z,102358.58
2022-12-18T13:54:16.401Z,102360.88
2022-12-18T13:56:49.582Z,102360.83
2022-12-18T13:59:38.606Z,102363.28
2022-12-18T14:02:22.651Z,102366.42
2022-12-18T14:05:03.864Z,102371.32
2022-12-18T14:07:41.544Z,102371.84
2022-12-18T14:10:44.380Z,102369.56
2022-12-18T14:13:11.115Z,102371.04
2022-12-18T14:15:44.682Z,102370.39
2022-12-18T14:18:23.913Z,102373.38
2022-12-18T14:21:03.545Z,102375.16
2022-12-18T14:23:40.398Z,102377.98
2022-12-18T14:26:31.324Z,102379.69
2022-12-18T14:29:02.358Z,102382.46
2022-12-18T14:31:33.042Z,102383.52
2022-12-18T14:34:03.226Z,102386.49
2022-12-18T14:36:31.143Z,102388.24
2022-12-18T14:39:02.464Z,102391.43
2022-12-18T14:41:32.607Z,102395.85
2022-12-18T14:44:08.146Z,102395.28
2022-12-18T14:46:41.179Z,102395.39
2022-12-18T14:49:34.697Z,102400.66
2022-12-18T14:52:08.138Z,102403.91
2022-12-18T14:57:27.951Z,102404.34
2022-12-18T15:00:06.989Z,102399.72
2022-12-18T15:02:37.750Z,102404.34
2022-12-18T15:05:14.018Z,102405.35
2022-12-18T15:07:44.315Z,102406.13
2022-12-18T15:10:44.151Z,102404.39
2022-12-18T15:13:24.348Z,102407.20
2022-12-18T15:15:53.130Z,102407.56
2022-12-18T15:18:24.866Z,102404.02
2022-12-18T15:20:56.097Z,102404.66
2022-12-18T15:23:30.074Z,102408.02
2022-12-18T15:26:07.065Z,102407.69
2022-12-18T15:29:11.391Z,102409.11
2022-12-18T15:31:44.616Z,102410.80
2022-12-18T15:34:15.839Z,102412.14
2022-12-18T15:36:44.695Z,102413.29
2022-12-18T15:39:13.393Z,102411.33
2022-12-18T15:42:01.943Z,102413.61
2022-12-18T15:44:29.501Z,102413.59
2022-12-18T15:46:59.491Z,102416.63
2022-12-18T15:49:30.051Z,102415.77
2022-12-18T15:52:02.860Z,102413.44
2022-12-18T15:54:49.382Z,102417.43
2022-12-18T15:57:28.357Z,102415.11
2022-12-18T15:59:59.596Z,102415.36
2022-12-18T16:02:29.142Z,102418.27
2022-12-18T16:04:58.490Z,102419.12
2022-12-18T16:07:29.141Z,102420.71
2022-12-18T16:09:58.753Z,102421.48
2022-12-18T16:12:27.792Z,102423.86
2022-12-18T16:14:56.421Z,102422.84
2022-12-18T16:17:23.872Z,102425.18
2022-12-18T16:19:51.315Z,102425.45
2022-12-18T16:22:28.336Z,102423.73
2022-12-18T16:24:57.269Z,102423.09
2022-12-18T16:27:29.787Z,102426.27
2022-12-18T16:29:59.286Z,102426.32
2022-12-18T16:32:28.959Z,102430.98
2022-12-18T16:35:04.103Z,102430.90
2022-12-18T16:37:31.996Z,102431.18
2022-12-18T16:39:59.058Z,102434.19
2022-12-18T16:42:26.293Z,102431.76
2022-12-18T16:44:54.164Z,102431.43
2022-12-18T16:47:21.873Z,102436.86
2022-12-18T16:49:53.024Z,102437.65
2022-12-18T16:52:21.522Z,102439.71
2022-12-18T16:54:49.634Z,102443.42
2022-12-18T16:57:20.280Z,102444.05
2022-12-18T16:59:49.513Z,102445.73
2022-12-18T17:02:21.843Z,102450.71
2022-12-18T17:04:53.549Z,102452.84
2022-12-18T17:07:22.986Z,102458.62
2022-12-18T17:09:54.309Z,102459.73
2022-12-18T17:12:24.062Z,102460.94
2022-12-18T17:14:53.634Z,102465.14
2022-12-18T17:17:24.270Z,102466.78
2022-12-18T17:19:57.974Z,102469.15
2022-12-18T17:22:26.383Z,102477.27
2022-12-18T17:24:55.635Z,102482.66
2022-12-18T17:27:23.814Z,102480.80
2022-12-18T17:29:53.737Z,102481.48
2022-12-18T17:32:21.806Z,102482.05
2022-12-18T17:34:51.945Z,102481.61
2022-12-18T17:37:20.899Z,102482.60
2022-12-18T17:39:51.244Z,102483.39
2022-12-18T17:42:20.140Z,102489.66
2022-12-18T17:44:47.180Z,102491.45
2022-12-18T17:47:17.514Z,102493.66
2022-12-18T17:49:48.208Z,102494.72
2022-12-18T17:52:15.587Z,102494.80
2022-12-18T17:54:46.466Z,102496.48
2022-12-18T17:57:15.531Z,102499.39
2022-12-18T17:59:43.850Z,102497.96
2022-12-18T18:02:12.714Z,102500.18
2022-12-18T18:04:41.118Z,102505.08
2022-12-18T18:07:11.332Z,102503.48
2022-12-18T18:09:39.345Z,102503.21
2022-12-18T18:12:25.480Z,102506.02
2022-12-18T18:14:55.339Z,102503.30
2022-12-18T18:17:24.467Z,102504.90
2022-12-18T18:20:01.764Z,102505.66
2022-12-18T18:22:29.080Z,102506.73
2022-12-18T18:24:56.776Z,102509.45
2022-12-18T18:27:24.315Z,102510.60
2022-12-18T18:29:54.911Z,102514.14
2022-12-18T18:32:23.442Z,102515.80
2022-12-18T18:34:55.198Z,102518.82
2022-12-18T18:37:22.361Z,102521.27
2022-12-18T18:39:49.384Z,102528.72
2022-12-18T18:42:17.032Z,102533.98
2022-12-18T18:44:49.038Z,102534.55
2022-12-18T18:47:17.747Z,102534.71
2022-12-18T18:49:46.612Z,102539.73
2022-12-18T18:52:13.878Z,102542.02
2022-12-18T18:54:57.102Z,102539.30
2022-12-18T18:57:30.511Z,102542.10
2022-12-18T19:00:10.714Z,102546.52
2022-12-18T19:02:43.020Z,102545.77
2022-12-18T19:05:10.456Z,102544.32
2022-12-18T19:07:41.182Z,102549.47
2022-12-18T19:10:10.502Z,102550.77
2022-12-18T19:12:56.941Z,102560.13
2022-12-18T19:15:25.583Z,102562.98
2022-12-18T19:17:53.624Z,102560.06
2022-12-18T19:20:22.908Z,102558.20
2022-12-18T19:22:55.545Z,102560.64
2022-12-18T19:25:40.147Z,102561.27
2022-12-18T19:28:18.965Z,102562.88
2022-12-18T19:30:59.364Z,102563.48
2022-12-18T19:33:42.830Z,102565.17
2022-12-18T19:36:20.477Z,102565.50
2022-12-18T19:38:56.288Z,102567.09
2022-12-18T19:41:31.082Z,102571.14
2022-12-18T19:44:08.214Z,102575.90
2022-12-18T19:46:42.049Z,102573.41
2022-12-18T19:49:17.337Z,102571.83
2022-12-18T19:51:46.932Z,102568.34
2022-12-18T19:54:17.391Z,102573.65
2022-12-18T19:56:46.176Z,102577.80
2022-12-18T19:59:14.002Z,102577.79
2022-12-18T20:01:44.561Z,102578.88
2022-12-18T20:04:12.927Z,102581.26
2022-12-18T20:06:47.234Z,102581.91
2022-12-18T20:09:15.392Z,102586.45
2022-12-18T20:11:45.502Z,102583.91
2022-12-18T20:14:19.597Z,102583.90
2022-12-18T20:17:01.199Z,102581.52
2022-12-18T20:19:33.806Z,102586.57
2022-12-18T20:22:02.526Z,102586.45
2022-12-18T20:24:29.913Z,102588.89
2022-12-18T20:27:00.744Z,102589.79
2022-12-18T20:29:28.226Z,102590.97
2022-12-18T20:31:56.601Z,102593.95
2022-12-18T20:34:24.345Z,102594.23
2022-12-18T20:36:52.298Z,102593.38
2022-12-18T20:39:19.564Z,102595.11
2022-12-18T20:41:50.066Z,102594.25
2022-12-18T20:44:22.644Z,102595.85
2022-12-18T20:46:55.409Z,102596.91
2022-12-18T20:49:26.920Z,102597.96
2022-12-18T20:52:09.511Z,102597.50
2022-12-18T20:54:36.566Z,102597.02
2022-12-18T20:57:06.633Z,102596.66
2022-12-18T20:59:33.622Z,102593.30
2022-12-18T21:02:01.236Z,102593.52
2022-12-18T21:04:31.665Z,102597.02
2022-12-18T21:07:02.730Z,102595.06
2022-12-18T21:09:37.558Z,102591.97
2022-12-18T21:12:34.978Z,102591.84
2022-12-18T21:15:14.674Z,102590.60
2022-12-18T21:17:44.652Z,102595.95
2022-12-18T21:20:17.793Z,102596.48
2022-12-18T21:22:54.985Z,102593.58
2022-12-18T21:25:27.261Z,102597.70
2022-12-18T21:28:02.251Z,102595.84
2022-12-18T21:30:40.080Z,102600.39
2022-12-18T21:33:07.504Z,102604.42
2022-12-18T21:35:34.384Z,102607.30
2022-12-18T21:38:02.700Z,102610.31
2022-12-18T21:40:34.163Z,102611.81
2022-12-18T21:43:21.025Z,102612.02
2022-12-18T21:45:49.644Z,102610.32
2022-12-18T21:48:16.949Z,102611.50
2022-12-18T21:50:44.103Z,102615.42
2022-12-18T21:53:22.426Z,102615.11
2022-12-18T21:55:58.890Z,102614.56
2022-12-18T21:58:26.371Z,102619.27
2022-12-18T22:00:53.978Z,102622.27
2022-12-18T22:03:24.222Z,102622.23
2022-12-18T22:06:07.068Z,102620.65
2022-12-18T22:08:36.760Z,102614.92
2022-12-18T22:11:13.536Z,102617.65
2022-12-18T22:13:40.665Z,102618.76
2022-12-18T22:16:08.933Z,102616.56
2022-12-18T22:18:36.357Z,102619.66
2022-12-18T22:21:06.919Z,102622.92
2022-12-18T22:23:34.875Z,102623.34
2022-12-18T22:26:02.008Z,102626.11
2022-12-18T22:28:51.886Z,102630.77
2022-12-18T22:31:21.859Z,102632.20
2022-12-18T22:33:49.489Z,102627.47
2022-12-18T22:36:16.781Z,102630.83
2022-12-18T22:38:47.184Z,102624.61
2022-12-18T22:41:14.455Z,102622.74
2022-12-18T22:43:45.557Z,102621.68
2022-12-18T22:46:17.915Z,102618.98
2022-12-18T22:48:45.368Z,102619.73
2022-12-18T22:51:18.045Z,102620.42
2022-12-18T22:53:45.712Z,102622.53
2022-12-18T22:56:20.229Z,102620.90
2022-12-18T22:59:09.349Z,102619.67
2022-12-18T23:01:38.236Z,102621.11
2022-12-18T23:04:11.448Z,102623.14
2022-12-18T23:06:44.201Z,102623.27
2022-12-18T23:09:20.071Z,102620.78
2022-12-18T23:11:48.515Z,102622.17
2022-12-18T23:14:15.653Z,102621.11
2022-12-18T23:16:42.805Z,102623.13
2022-12-18T23:19:12.166Z,102621.11
2022-12-18T23:21:39.570Z,102619.61
2022-12-18T23:24:06.897Z,102618.39
2022-12-18T23:26:34.356Z,102621.73
2022-12-18T23:29:01.846Z,102622.11
2022-12-18T23:31:39.743Z,102616.03
2022-12-18T23:34:07.640Z,102610.02
2022-12-18T23:36:45.541Z,102605.33
2022-12-18T23:39:26.198Z,102609.15
2022-12-18T23:41:58.306Z,102606.88
2022-12-18T23:44:25.746Z,102607.31
2022-12-18T23:46:53.054Z,102607.41
2022-12-18T23:49:20.105Z,102607.04
2022-12-18T23:51:47.172Z,102608.25
2022-12-18T23:54:14.356Z,102611.77
2022-12-18T23:56:41.445Z,102608.42
2022-12-18T23:59:08.408Z,102611.60
